الصفحة الرئيسية
METAR-TAF:

مطار :

سكاكا, السعودية

مطار الجوف المحلي

دائرة عرض: 29-47N, خط طول: 040-06E, ارتفاع: 689 متر

مراقبة الطقس الحالي

تاريخ ووقت الإصدار 1ساعة و 22 دقيقة قبل الساعة 00:00UTC
ريح 10 عقدة من الجنوب
درجة الحرارة 20°درجة مئوية
الرطوبة 40%
ضغط 1013 hPa
الرؤية 10 كم أو أكثر
الغيوم لا تقل 1500 م ولا وجود لمزنة ركامية السحاب الأسود

METAR: OESK 300000Z 18010KT CAVOK 20/06 Q1013 NOSIG

زمن: 04:22 (01:22 UTC)

توقعات

تاريخ ووقت الإصدار 2ساعات و 52 دقيقة قبل الساعة 22:30UTC
التوقعات صالحة من30 الساعة 00 UTC إلى 01 الساعة 06 UTC
ريح 4 عقدةمن اتجاهات متغيرة
الرؤية: 8000 متر
غيوم قليلة على ارتفاع 3000 قدم
مؤقت
من 30 الساعة 00 UTC إلى 30 الساعة 14 UTC
الرؤية: 4000 متر
هبوب الغبار
أصبح
من 30 الساعة 06 UTC إلى 30 الساعة 08 UTC
ريح 10 عقدة من الجنوب

TAF: OESK 292230Z 3000/0106 VRB04KT 8000 FEW030 TEMPO 3000/3014 4000 BLDU BECMG 3006/3008 18010KT

METAR-TAF

أرصاد الطقس والتوقعات من أكثر من 4000 مطار (تقارير الطقس للمطار METAR والتنبؤ بالطقس بالمطارTAF).

المحطات المتاحة هي النقط الصفراء والحمراء على الخريطة.

حرك المؤشر فوق النقطة لمعرفة اسم المحطة.

ثم انقر لمعرفة أرصاد وتوقعات الطقس.

لتغيير الخارطة: اضغط على الأزرار الخضراء مع رمز الصليب الأسود للتكبير. على الزر الأخضر مع شرطة للتصغير، أو على الأسهم الخضراء للخرائط المجاورة.


METAR-TAF: